Time;durP1;ratioP1;P1;durP2;ratioP2;P2;SDS_P1;SDS_P2;PMS_P1;PMS_P2;Temp;Humidity;BMP_temperature;BMP_pressure;BME280_temperature;BME280_humidity;BME280_pressure;Samples;Min_cycle;Max_cycle;Signal;HPM_P1;HPM_P2
2021/10/23 00:02:01;;;;;;;3.87;2.87;;;8.50;68.90;;;7.07;80.10;98610.41;5035602;28;20475;-72
2021/10/23 00:04:28;;;;;;;5.63;3.63;;;8.40;69.20;;;7.09;79.61;98624.50;5052639;28;20560;-72
2021/10/23 00:06:55;;;;;;;5.27;3.40;;;8.40;69.40;;;7.14;80.00;98617.75;5054344;28;20588;-72
2021/10/23 00:09:22;;;;;;;5.50;3.33;;;8.40;69.80;;;7.03;80.74;98627.88;5043738;28;20504;-72
2021/10/23 00:11:49;;;;;;;9.70;3.80;;;8.30;69.80;;;7.11;80.27;98629.69;5033067;28;20525;-72
2021/10/23 00:14:18;;;;;;;3.97;3.07;;;8.40;70.10;;;7.17;79.75;98628.97;5034621;28;20504;-73
2021/10/23 00:16:45;;;;;;;5.80;3.60;;;8.40;69.70;;;7.03;80.17;98640.50;5050188;28;20443;-73
2021/10/23 00:19:14;;;;;;;6.70;3.30;;;8.40;69.90;;;6.98;80.15;98632.13;5048238;28;20545;-73
2021/10/23 00:21:41;;;;;;;8.13;3.83;;;8.30;70.00;;;6.92;80.72;98628.31;5045189;28;20544;-72
2021/10/23 00:24:08;;;;;;;4.00;3.10;;;8.30;70.10;;;7.05;79.63;98635.78;5052476;28;20470;-72
2021/10/23 00:26:35;;;;;;;7.40;3.70;;;8.30;70.00;;;7.03;80.33;98644.00;5034135;28;20446;-73
2021/10/23 00:29:02;;;;;;;4.03;3.33;;;8.30;70.10;;;6.97;80.63;98646.56;5033317;28;20533;-73
2021/10/23 00:31:29;;;;;;;6.10;3.47;;;8.30;70.40;;;7.03;80.53;98637.81;5033532;28;20984;-73
2021/10/23 00:33:56;;;;;;;6.53;3.63;;;8.30;70.50;;;7.06;80.33;98640.97;5033156;28;20493;-72
2021/10/23 00:36:24;;;;;;;9.40;4.40;;;8.30;70.60;;;6.94;81.07;98639.72;5032799;28;20537;-72
2021/10/23 00:38:51;;;;;;;6.67;3.50;;;8.30;70.80;;;6.91;81.00;98646.25;5033194;28;20478;-72
2021/10/23 00:41:18;;;;;;;4.47;3.60;;;8.20;71.20;;;6.94;81.65;98642.41;5031174;28;20446;-72
2021/10/23 00:43:47;;;;;;;4.57;4.00;;;8.20;71.70;;;7.00;81.62;98649.72;5049414;28;20501;-72
2021/10/23 00:46:15;;;;;;;6.37;4.00;;;8.30;71.80;;;6.88;81.49;98649.31;5034371;28;20528;-73
2021/10/23 00:48:43;;;;;;;7.03;4.03;;;8.20;71.90;;;6.90;82.05;98646.41;5032565;28;20798;-72
2021/10/23 00:51:10;;;;;;;4.70;4.27;;;8.20;72.40;;;6.97;81.90;98647.41;5037205;28;20560;-73
2021/10/23 00:53:39;;;;;;;8.67;3.53;;;8.20;72.60;;;7.02;81.51;98645.00;5054288;28;20448;-73
2021/10/23 00:56:06;;;;;;;4.90;3.80;;;8.30;72.50;;;6.94;81.95;98653.97;5052914;28;20442;-73
2021/10/23 00:58:34;;;;;;;7.20;3.97;;;8.20;72.90;;;6.97;81.77;98655.47;5052915;28;20545;-73
2021/10/23 01:01:01;;;;;;;7.20;4.33;;;8.20;72.90;;;6.98;82.09;98649.06;5054415;28;20469;-73
2021/10/23 01:03:28;;;;;;;7.10;4.80;;;8.30;73.10;;;6.86;82.34;98647.78;5054451;28;20441;-72
2021/10/23 01:05:56;;;;;;;6.47;3.97;;;8.20;73.00;;;6.99;81.97;98653.44;5054211;28;20445;-72
2021/10/23 01:08:23;;;;;;;5.67;3.93;;;8.20;73.50;;;6.75;82.20;98635.59;5053499;28;20541;-72
2021/10/23 01:10:52;;;;;;;6.83;4.10;;;8.20;73.40;;;6.79;82.60;98661.94;5052513;28;20515;-72
2021/10/23 01:13:19;;;;;;;7.60;4.50;;;8.10;73.70;;;6.84;82.91;98658.72;5051792;28;20976;-71
2021/10/23 01:15:46;;;;;;;4.60;4.03;;;8.10;74.30;;;7.02;82.68;98655.75;5053109;28;20917;-73
2021/10/23 01:18:13;;;;;;;4.83;4.10;;;8.20;74.10;;;6.95;82.37;98660.19;5053800;28;20464;-72
2021/10/23 01:20:41;;;;;;;5.33;4.43;;;8.20;73.90;;;6.73;83.31;98651.88;5052200;28;20847;-72
2021/10/23 01:23:08;;;;;;;6.47;4.20;;;8.10;74.40;;;6.91;82.84;98659.69;5053004;28;20524;-73
2021/10/23 01:25:35;;;;;;;5.80;3.90;;;8.20;74.60;;;6.85;83.27;98664.94;5052658;28;20544;-73
2021/10/23 01:28:05;;;;;;;11.23;5.13;;;8.10;74.90;;;6.88;83.02;98669.94;5039685;28;20504;-73
2021/10/23 01:30:32;;;;;;;9.57;4.00;;;8.10;74.90;;;6.75;83.72;98668.69;5032754;28;20474;-71
2021/10/23 01:32:59;;;;;;;5.23;4.00;;;8.10;75.20;;;6.77;84.21;98669.34;5032913;28;20450;-72
2021/10/23 01:35:28;;;;;;;5.67;4.10;;;8.10;75.70;;;6.76;84.86;98683.78;5032575;28;20455;-72
2021/10/23 01:37:56;;;;;;;7.67;4.50;;;8.10;76.60;;;6.76;85.16;98683.78;5033934;28;20535;-73
2021/10/23 01:40:26;;;;;;;7.87;4.30;;;8.00;77.20;;;6.69;85.94;98676.59;5033909;28;20485;-73
2021/10/23 01:42:54;;;;;;;7.50;5.17;;;8.00;77.50;;;6.55;86.62;98673.63;5033887;28;20530;-73
2021/10/23 01:45:21;;;;;;;6.20;4.27;;;7.90;78.70;;;6.70;86.96;98678.28;5032439;28;20611;-72
2021/10/23 01:47:48;;;;;;;7.90;5.00;;;7.90;80.30;;;6.60;87.53;98684.69;5033559;28;20461;-72
2021/10/23 01:50:18;;;;;;;8.47;4.67;;;7.90;80.10;;;6.48;87.26;98670.78;5033063;28;20858;-72
2021/10/23 01:52:45;;;;;;;6.90;5.10;;;7.90;80.20;;;6.54;87.49;98684.53;5030872;28;20517;-73
2021/10/23 01:55:16;;;;;;;6.53;5.07;;;7.90;80.80;;;6.53;88.10;98683.72;5032240;28;20496;-73
2021/10/23 01:57:43;;;;;;;9.30;4.80;;;7.80;81.90;;;6.45;88.80;98676.50;5032525;28;20577;-73
2021/10/23 02:00:15;;;;;;;9.47;5.43;;;7.80;82.40;;;6.41;89.15;98680.53;5032671;28;20442;-72
2021/10/23 02:02:42;;;;;;;12.17;5.43;;;7.70;82.80;;;6.34;89.72;98680.38;5032602;28;20451;-73
2021/10/23 02:05:10;;;;;;;7.47;5.30;;;7.70;83.90;;;6.43;89.18;98678.50;5032752;28;20466;-72
2021/10/23 02:07:38;;;;;;;7.73;5.20;;;7.70;84.20;;;6.35;90.12;98675.88;5033163;28;20446;-73
2021/10/23 02:10:06;;;;;;;10.97;5.13;;;7.60;84.70;;;6.09;90.58;98650.94;5033247;28;20449;-73
2021/10/23 02:12:35;;;;;;;10.30;5.77;;;7.60;85.70;;;6.31;90.89;98685.28;5034177;28;20573;-73
2021/10/23 02:15:03;;;;;;;6.00;4.50;;;7.60;86.60;;;6.21;89.89;98688.97;5032365;28;20526;-73
2021/10/23 02:17:30;;;;;;;7.60;5.53;;;7.60;85.60;;;6.24;90.83;98690.50;5031944;28;20797;-73
2021/10/23 02:19:57;;;;;;;10.03;5.70;;;7.50;86.50;;;6.13;90.19;98683.59;5032162;28;20529;-73
2021/10/23 02:22:24;;;;;;;7.97;5.60;;;7.50;86.50;;;6.16;90.92;98677.94;5033271;28;20496;-73
2021/10/23 02:24:51;;;;;;;9.17;5.73;;;7.40;87.10;;;6.15;90.91;98684.31;5033339;28;20498;-73
2021/10/23 02:27:18;;;;;;;5.90;5.00;;;7.50;86.70;;;6.21;90.19;98686.28;5030635;28;20442;-73
2021/10/23 02:29:46;;;;;;;10.47;5.73;;;7.50;86.50;;;6.18;90.16;98681.28;5030722;28;20550;-72
2021/10/23 02:32:13;;;;;;;9.03;4.73;;;7.50;86.20;;;6.20;90.56;98684.63;5034589;28;20469;-72
2021/10/23 02:34:40;;;;;;;8.90;5.30;;;7.50;86.20;;;6.26;90.26;98692.97;5034408;28;20956;-73
2021/10/23 02:37:07;;;;;;;6.80;5.13;;;7.50;86.20;;;6.24;90.24;98695.84;5043711;28;20452;-73
2021/10/23 02:39:34;;;;;;;6.53;5.40;;;7.50;86.60;;;6.19;90.49;98696.38;5056800;28;20815;-72
2021/10/23 02:42:01;;;;;;;8.50;5.10;;;7.50;86.60;;;6.25;90.01;98702.91;5044169;28;20481;-72
2021/10/23 02:44:28;;;;;;;7.97;6.27;;;7.50;86.50;;;6.26;89.91;98703.72;5033786;28;20524;-72
2021/10/23 02:46:56;;;;;;;8.33;5.17;;;7.60;86.30;;;6.13;90.70;98699.72;5048270;28;20800;-73
2021/10/23 02:49:23;;;;;;;6.73;5.43;;;7.50;86.60;;;6.18;90.36;98709.94;5056380;28;20520;-72
2021/10/23 02:51:50;;;;;;;7.53;5.17;;;7.50;86.80;;;6.21;90.58;98707.75;5042518;28;20573;-72
2021/10/23 02:54:17;;;;;;;11.17;5.73;;;7.50;86.60;;;6.20;91.30;98706.09;5046532;28;20486;-72
2021/10/23 02:56:45;;;;;;;6.97;5.60;;;7.50;87.30;;;6.12;90.67;98714.13;5016143;28;20566;-72
2021/10/23 02:59:12;;;;;;;11.07;6.13;;;7.40;86.90;;;6.02;91.55;98718.88;5043472;28;20472;-72
2021/10/23 03:01:39;;;;;;;8.53;6.00;;;7.30;87.50;;;6.00;91.47;98715.47;5055864;28;20477;-72
2021/10/23 03:04:07;;;;;;;10.37;6.27;;;7.30;88.40;;;5.97;92.05;98719.31;5041872;28;20804;-72
2021/10/23 03:06:34;;;;;;;10.00;6.80;;;7.30;88.80;;;5.88;92.01;98715.81;5050751;28;20541;-72
2021/10/23 03:09:01;;;;;;;10.60;7.57;;;7.30;88.80;;;6.03;92.09;98720.53;5034526;28;21001;-73
2021/10/23 03:11:28;;;;;;;9.03;5.90;;;7.30;89.40;;;5.98;91.49;98733.56;5036005;28;20554;-73
2021/10/23 03:13:56;;;;;;;6.97;6.20;;;7.30;89.00;;;5.93;91.90;98740.28;5051355;28;20473;-73
2021/10/23 03:16:23;;;;;;;13.87;7.30;;;7.20;89.70;;;5.76;93.01;98733.25;5036251;28;20442;-72
2021/10/23 03:18:51;;;;;;;8.40;6.60;;;7.10;89.50;;;5.77;93.54;98735.75;5051262;28;20478;-73
2021/10/23 03:21:19;;;;;;;9.70;6.53;;;7.10;90.50;;;5.89;93.00;98727.38;5050886;28;20956;-73
2021/10/23 03:23:47;;;;;;;7.80;6.33;;;7.10;90.60;;;5.80;93.06;98723.84;5034146;28;20435;-73
2021/10/23 03:26:14;;;;;;;7.53;5.90;;;7.10;90.70;;;5.83;92.45;98731.56;5034146;28;20536;-72
2021/10/23 03:28:41;;;;;;;11.50;7.20;;;7.10;90.50;;;5.85;93.42;98734.06;5034563;28;20443;-72
2021/10/23 03:31:08;;;;;;;10.10;5.87;;;7.10;90.50;;;5.71;92.75;98711.47;5034867;28;20439;-72
2021/10/23 03:33:35;;;;;;;10.10;7.23;;;7.10;90.60;;;5.65;93.55;98718.31;5034535;28;20454;-72
2021/10/23 03:36:02;;;;;;;8.80;6.00;;;7.00;90.70;;;5.61;93.31;98723.16;5034270;28;20542;-73
2021/10/23 03:38:30;;;;;;;9.53;7.07;;;6.90;90.80;;;5.52;93.70;98726.84;5034317;28;20482;-72
2021/10/23 03:40:58;;;;;;;8.00;6.07;;;6.90;90.90;;;5.65;93.61;98726.38;5035369;28;20470;-73
2021/10/23 03:43:25;;;;;;;8.47;6.67;;;6.90;91.10;;;5.55;94.55;98723.84;5050290;28;20446;-72
2021/10/23 03:45:52;;;;;;;8.77;6.40;;;6.90;91.40;;;5.58;93.99;98734.22;5033913;28;20540;-73
2021/10/23 03:48:19;;;;;;;9.60;6.97;;;6.80;91.60;;;5.42;94.96;98742.25;5034271;28;20537;-73
2021/10/23 03:50:48;;;;;;;13.10;6.73;;;6.80;91.50;;;5.57;94.62;98737.91;5033850;28;20517;-73
2021/10/23 03:53:15;;;;;;;8.73;6.43;;;6.80;91.70;;;5.52;94.46;98741.09;5035321;28;20446;-73
2021/10/23 03:55:43;;;;;;;8.10;6.70;;;6.80;91.90;;;5.43;94.89;98741.25;5035260;28;20469;-73
2021/10/23 03:58:10;;;;;;;8.60;6.90;;;6.80;91.70;;;5.46;94.93;98749.81;5035208;28;20447;-73
2021/10/23 04:00:38;;;;;;;9.63;6.80;;;6.70;91.90;;;5.36;95.20;98752.59;5035189;28;20454;-72
2021/10/23 04:03:05;;;;;;;9.53;6.13;;;6.70;92.30;;;5.32;95.10;98751.25;5032002;28;21023;-72
2021/10/23 04:05:32;;;;;;;7.90;6.13;;;6.60;92.30;;;5.24;96.42;98759.28;5035087;28;20486;-72
2021/10/23 04:07:59;;;;;;;11.13;7.00;;;6.60;92.70;;;5.26;95.84;98757.28;5033542;28;20439;-73
2021/10/23 04:10:26;;;;;;;9.67;6.83;;;6.60;92.90;;;5.27;95.55;98758.97;5035335;28;20520;-72
2021/10/23 04:12:54;;;;;;;10.20;6.60;;;6.60;93.00;;;5.20;96.33;98755.25;5034806;28;20485;-73
2021/10/23 04:15:22;;;;;;;10.90;7.50;;;6.60;92.90;;;5.15;95.94;98758.41;5033378;28;20854;-73
2021/10/23 04:17:49;;;;;;;10.03;7.20;;;6.50;93.10;;;5.37;95.24;98767.69;5034826;28;20438;-73
2021/10/23 04:20:16;;;;;;;8.90;5.97;;;6.60;92.90;;;4.95;95.36;98709.63;5050773;28;20490;-73
2021/10/23 04:22:43;;;;;;;6.30;5.70;;;6.60;92.40;;;5.17;95.19;98758.25;5050035;28;20545;-72
2021/10/23 04:25:11;;;;;;;7.27;5.33;;;6.60;92.40;;;5.30;95.45;98780.06;5034869;28;20470;-73
2021/10/23 04:27:38;;;;;;;13.53;6.43;;;6.60;92.00;;;5.29;95.00;98786.44;5050304;28;21037;-73
2021/10/23 04:30:08;;;;;;;10.00;5.77;;;6.60;91.90;;;5.05;94.82;98761.22;5034809;28;20474;-73
2021/10/23 04:32:35;;;;;;;7.57;5.87;;;6.60;92.10;;;5.30;94.63;98781.88;5034541;28;20630;-74
2021/10/23 04:35:03;;;;;;;10.33;6.17;;;6.70;91.50;;;5.28;94.76;98792.78;5050219;28;20855;-70
2021/10/23 04:37:30;;;;;;;10.77;6.20;;;6.60;91.50;;;5.05;95.48;98788.00;5033521;28;20439;-72
2021/10/23 04:39:57;;;;;;;7.97;6.03;;;6.50;91.90;;;4.99;95.85;98794.00;5033476;28;20862;-72
2021/10/23 04:42:26;;;;;;;11.50;6.60;;;6.40;92.90;;;4.96;96.18;98802.38;5035336;28;20613;-72
2021/10/23 04:44:53;;;;;;;10.60;6.80;;;6.40;93.00;;;4.91;97.05;98799.31;5050214;28;20439;-73
2021/10/23 04:47:21;;;;;;;10.27;7.20;;;6.30;93.20;;;5.04;96.40;98810.44;5034459;28;20520;-73
2021/10/23 04:49:48;;;;;;;15.93;9.20;;;6.40;93.70;;;5.14;97.13;98817.53;5031556;28;20938;-73
2021/10/23 04:52:15;;;;;;;20.03;11.13;;;6.40;94.70;;;5.27;97.21;98817.06;5030845;28;20525;-73
2021/10/23 04:54:42;;;;;;;8.27;6.53;;;6.50;94.60;;;5.35;95.44;98830.50;5029493;28;20980;-71
2021/10/23 04:57:09;;;;;;;9.67;6.90;;;6.60;93.10;;;5.36;95.49;98811.56;5033018;28;20834;-72
2021/10/23 04:59:36;;;;;;;8.87;6.03;;;6.60;92.80;;;5.53;94.17;98816.97;5032692;28;20442;-73
2021/10/23 05:02:04;;;;;;;9.73;6.17;;;6.80;92.30;;;5.56;94.41;98821.19;5034253;28;20455;-73
2021/10/23 05:04:32;;;;;;;8.37;5.90;;;6.80;91.50;;;5.59;93.76;98816.34;5034313;28;20434;-73
2021/10/23 05:06:59;;;;;;;8.67;6.30;;;6.90;91.30;;;5.65;93.20;98821.03;5034278;28;20517;-75
2021/10/23 05:09:26;;;;;;;10.40;6.77;;;6.90;91.00;;;5.67;93.99;98824.38;5033830;28;21032;-73
2021/10/23 05:11:53;;;;;;;11.23;5.77;;;6.90;91.00;;;5.79;92.41;98826.75;5032275;28;20446;-72
2021/10/23 05:14:21;;;;;;;9.43;5.93;;;7.00;90.30;;;5.74;92.92;98821.88;5031924;28;21027;-72
2021/10/23 05:16:48;;;;;;;10.03;6.67;;;7.00;90.40;;;5.68;92.75;98826.06;5030910;28;20536;-72
2021/10/23 05:19:15;;;;;;;7.80;5.77;;;7.00;90.40;;;5.68;92.43;98817.19;5033642;28;20479;-73
2021/10/23 05:21:43;;;;;;;8.43;5.93;;;7.00;90.20;;;5.66;92.55;98822.69;5032580;28;20478;-72
2021/10/23 05:24:10;;;;;;;9.17;6.07;;;7.00;90.20;;;5.58;93.08;98822.69;5033785;28;20861;-73
2021/10/23 05:26:37;;;;;;;8.63;5.40;;;6.90;90.50;;;5.47;93.28;98817.63;5033166;28;20862;-73
2021/10/23 05:29:05;;;;;;;7.20;5.73;;;6.90;90.20;;;5.57;93.25;98823.72;5032437;28;20473;-73
2021/10/23 05:31:32;;;;;;;10.13;6.30;;;6.90;90.30;;;5.62;93.10;98837.44;5032581;28;20447;-73
2021/10/23 05:33:59;;;;;;;8.83;6.20;;;6.90;90.70;;;5.72;93.02;98841.84;5014637;28;20443;-72
2021/10/23 05:36:26;;;;;;;8.43;5.80;;;6.90;90.90;;;5.57;92.74;98845.16;5013405;28;20482;-72
2021/10/23 05:38:54;;;;;;;9.40;5.60;;;6.90;90.50;;;5.53;93.20;98849.13;5014581;28;20503;-72
2021/10/23 05:41:21;;;;;;;7.20;5.43;;;6.90;90.70;;;5.32;93.34;98804.84;5017145;28;20455;-72
2021/10/23 05:43:48;;;;;;;8.40;5.50;;;6.90;90.70;;;5.47;93.34;98865.88;5015668;28;20448;-73
2021/10/23 05:46:16;;;;;;;10.37;5.90;;;6.80;90.60;;;5.58;94.19;98862.91;5015562;28;20464;-72
2021/10/23 05:48:43;;;;;;;7.73;6.00;;;6.80;91.20;;;5.57;93.11;98866.59;5014819;28;20482;-71
2021/10/23 05:51:10;;;;;;;9.67;6.57;;;6.80;91.00;;;5.68;93.20;98863.59;5015770;28;20475;-72
2021/10/23 05:53:37;;;;;;;7.03;6.33;;;6.90;91.20;;;5.73;92.71;98865.78;5015995;28;20440;-71
2021/10/23 05:56:06;;;;;;;9.50;6.53;;;6.90;90.90;;;5.51;93.35;98865.41;5013113;28;20471;-73
2021/10/23 05:58:33;;;;;;;8.50;6.80;;;6.80;90.70;;;5.34;94.37;98885.94;5014665;28;20860;-72
2021/10/23 06:01:05;;;;;;;7.43;5.73;;;6.60;91.10;;;5.28;93.75;98883.03;5030250;28;20447;-73
2021/10/23 06:03:34;;;;;;;6.43;5.20;;;6.60;91.50;;;5.24;93.81;98893.25;5013992;28;20500;-72
2021/10/23 06:06:03;;;;;;;11.23;6.13;;;6.50;91.80;;;5.31;93.71;98883.56;5017090;28;20470;-72
2021/10/23 06:08:31;;;;;;;8.73;6.20;;;6.50;91.80;;;5.23;94.45;98902.28;5017402;28;20454;-72
2021/10/23 06:10:59;;;;;;;14.37;9.90;;;6.50;91.70;;;5.12;94.07;98890.00;5017897;28;20825;-71
2021/10/23 06:13:27;;;;;;;8.43;6.70;;;6.40;92.00;;;5.06;94.96;98901.34;5017884;28;20988;-72
2021/10/23 06:15:55;;;;;;;10.40;5.97;;;6.30;92.00;;;4.97;95.23;98903.16;5035158;28;20497;-72
2021/10/23 06:18:22;;;;;;;10.23;5.97;;;6.20;92.40;;;4.87;95.19;98897.91;5016731;28;20539;-72
2021/10/23 06:20:50;;;;;;;9.10;6.37;;;6.20;92.80;;;4.80;95.52;98913.75;5017267;28;20455;-72
2021/10/23 06:23:17;;;;;;;9.20;7.00;;;6.00;93.30;;;4.82;96.18;98909.06;5018312;28;20439;-71
2021/10/23 06:25:45;;;;;;;11.10;6.70;;;6.00;93.90;;;4.74;96.18;98909.00;5016737;28;20471;-72
2021/10/23 06:28:12;;;;;;;10.47;6.20;;;6.00;93.50;;;4.68;96.80;98901.59;5017886;28;20435;-75
2021/10/23 06:30:40;;;;;;;10.60;7.30;;;6.00;93.90;;;4.76;96.69;98896.28;5019797;28;20453;-73
2021/10/23 06:33:07;;;;;;;10.37;7.07;;;6.00;94.60;;;4.80;96.05;98911.06;5021774;28;20463;-73
2021/10/23 06:35:34;;;;;;;9.60;6.00;;;6.10;93.30;;;4.84;96.06;98919.59;5023200;28;20551;-73
2021/10/23 06:38:03;;;;;;;9.60;8.20;;;6.10;93.90;;;4.79;95.80;98892.47;5020454;28;20511;-72
2021/10/23 06:40:30;;;;;;;9.93;7.87;;;6.10;93.80;;;4.87;96.55;98897.03;5020022;28;20462;-72
2021/10/23 06:42:57;;;;;;;10.83;7.73;;;6.20;94.10;;;5.06;95.89;98898.69;5020991;28;20502;-73
2021/10/23 06:45:25;;;;;;;10.97;7.83;;;6.20;93.50;;;5.29;94.14;98898.97;5024038;28;20458;-78
2021/10/23 06:47:54;;;;;;;9.90;7.00;;;6.40;92.90;;;5.15;94.15;98891.53;5027365;28;20451;-74
2021/10/23 06:50:22;;;;;;;11.50;7.33;;;6.50;91.90;;;5.21;93.17;98901.59;5018923;28;20962;-71
2021/10/23 06:52:49;;;;;;;9.83;7.17;;;6.50;91.20;;;5.44;93.13;98888.47;5018973;28;20471;-70
2021/10/23 06:55:16;;;;;;;11.93;6.00;;;6.60;91.10;;;5.46;92.22;98912.44;5018336;28;20443;-71
2021/10/23 06:57:46;;;;;;;10.17;6.50;;;6.70;90.00;;;5.22;92.11;98866.63;5017065;28;20490;-72
2021/10/23 07:00:15;;;;;;;10.27;6.93;;;6.80;89.70;;;5.49;91.25;98906.75;5018353;28;20439;-71
2021/10/23 07:02:45;;;;;;;11.93;6.23;;;6.80;89.40;;;5.57;91.27;98903.28;5018839;28;20463;-73
2021/10/23 07:05:16;;;;;;;7.40;5.80;;;6.80;89.50;;;5.44;92.19;98909.09;5028120;28;20465;-73
2021/10/23 07:07:43;;;;;;;8.20;7.03;;;6.80;89.90;;;5.78;91.52;98921.63;5052959;28;20481;-71
2021/10/23 07:10:12;;;;;;;12.10;7.67;;;6.90;89.20;;;6.05;88.99;98922.41;5036097;28;20459;-72
2021/10/23 07:12:39;;;;;;;9.33;6.50;;;7.20;87.20;;;6.32;88.18;98939.25;5037861;28;20883;-71
2021/10/23 07:15:08;;;;;;;8.63;6.23;;;7.40;85.80;;;6.44;86.74;98943.25;5036076;28;20446;-70
2021/10/23 07:17:35;;;;;;;11.30;5.70;;;7.60;83.50;;;6.73;85.37;98936.56;5036967;28;20461;-71
2021/10/23 07:20:03;;;;;;;8.57;6.33;;;7.90;82.20;;;7.11;83.64;98954.84;5037038;28;20446;-71
2021/10/23 07:22:34;;;;;;;6.30;5.67;;;8.20;81.70;;;7.41;82.00;98948.94;5052587;28;20533;-71
2021/10/23 07:25:03;;;;;;;8.13;5.10;;;8.50;79.70;;;7.64;80.79;98959.78;5053341;28;20512;-71
2021/10/23 07:27:30;;;;;;;9.07;4.93;;;8.80;78.40;;;7.34;81.37;98962.22;5035962;28;20819;-71
2021/10/23 07:29:57;;;;;;;9.60;5.63;;;8.70;77.50;;;7.72;80.23;98973.19;5051924;28;20834;-71
2021/10/23 07:32:24;;;;;;;6.47;4.83;;;8.90;77.40;;;7.76;80.08;98973.69;5053520;28;21017;-72
2021/10/23 07:34:51;;;;;;;7.60;5.17;;;8.90;76.90;;;7.98;78.92;98984.72;5053301;28;20470;-71
2021/10/23 07:37:18;;;;;;;5.37;4.77;;;9.10;76.20;;;7.84;78.81;98994.34;5036972;28;20439;-72
2021/10/23 07:39:47;;;;;;;5.33;4.93;;;9.10;75.20;;;7.63;78.68;98991.19;5035708;28;20449;-70
2021/10/23 07:42:14;;;;;;;5.90;4.80;;;9.00;75.20;;;7.76;79.41;98984.44;5033991;28;20524;-72
2021/10/23 07:44:42;;;;;;;6.67;5.67;;;9.00;75.60;;;7.77;79.59;98983.44;5035166;28;20906;-71
2021/10/23 07:47:10;;;;;;;11.37;4.20;;;9.00;75.40;;;7.74;78.72;98973.03;5035475;28;20472;-72
2021/10/23 07:49:37;;;;;;;6.50;4.57;;;9.00;75.00;;;7.89;77.37;99006.25;5035292;28;20457;-72
2021/10/23 07:52:05;;;;;;;7.23;4.50;;;9.10;73.60;;;8.10;76.34;98994.06;5035258;28;20908;-72
2021/10/23 07:54:32;;;;;;;5.43;4.43;;;9.30;73.30;;;8.12;76.15;99000.13;5035427;28;20481;-72
2021/10/23 07:57:01;;;;;;;7.27;4.70;;;9.30;72.80;;;8.01;76.54;99004.03;5035157;28;20461;-73
2021/10/23 07:59:28;;;;;;;7.53;5.20;;;9.20;72.40;;;7.94;76.41;99014.66;5050997;28;20508;-71
2021/10/23 08:01:58;;;;;;;6.80;4.73;;;9.20;72.10;;;7.93;77.75;99012.97;5035224;28;20446;-71
2021/10/23 08:04:25;;;;;;;6.73;5.20;;;9.10;73.30;;;7.96;77.27;99022.56;5033422;28;20454;-73
2021/10/23 08:06:52;;;;;;;6.90;5.50;;;9.20;73.00;;;7.94;77.71;99014.66;5049812;28;20474;-74
2021/10/23 08:09:20;;;;;;;5.50;5.00;;;9.20;73.10;;;7.90;77.84;99018.69;5033686;28;20933;-72
2021/10/23 08:11:47;;;;;;;8.43;6.20;;;9.10;73.50;;;7.69;78.58;99011.19;5035517;28;20946;-72
2021/10/23 08:14:15;;;;;;;9.57;5.57;;;9.00;73.30;;;7.53;79.57;99022.84;5050613;28;20968;-72
2021/10/23 08:16:43;;;;;;;6.47;5.77;;;8.90;74.10;;;7.40;79.67;99027.91;5035718;28;20522;-73
2021/10/23 08:19:10;;;;;;;7.10;5.77;;;8.70;74.30;;;7.25;80.01;99017.84;5050691;28;20461;-74
2021/10/23 08:21:40;;;;;;;13.23;6.70;;;8.60;74.50;;;7.40;80.53;99034.13;5034167;28;20465;-72
2021/10/23 08:24:08;;;;;;;11.00;5.17;;;8.60;74.90;;;7.36;79.37;99030.09;5035395;28;20961;-72
2021/10/23 08:26:35;;;;;;;7.60;6.10;;;8.60;74.30;;;7.24;79.05;99013.47;5033646;28;20865;-73
2021/10/23 08:29:03;;;;;;;7.10;5.17;;;8.60;74.00;;;7.29;79.26;99029.94;5034159;28;20446;-73
2021/10/23 08:31:32;;;;;;;6.20;4.93;;;8.60;73.90;;;7.53;78.15;99039.00;5035299;28;20439;-73
2021/10/23 08:34:00;;;;;;;6.10;5.03;;;8.70;73.70;;;7.65;77.47;99040.28;5036112;28;20469;-72
2021/10/23 08:36:29;;;;;;;9.40;4.80;;;8.90;73.10;;;7.66;76.48;99043.81;5035874;28;20451;-71
2021/10/23 08:38:56;;;;;;;4.27;3.40;;;8.90;72.40;;;7.60;76.31;99044.53;5034914;28;20457;-71
2021/10/23 08:41:24;;;;;;;10.53;5.70;;;8.80;71.80;;;7.60;77.42;99041.84;5050146;28;20454;-71
2021/10/23 08:43:53;;;;;;;5.83;3.93;;;8.80;72.50;;;7.44;76.41;99007.72;5034704;28;20446;-74
2021/10/23 08:46:23;;;;;;;7.50;3.90;;;8.90;71.80;;;8.12;75.41;99035.13;5033313;28;20470;-72
2021/10/23 08:48:53;;;;;;;7.40;4.00;;;9.20;71.80;;;8.54;73.17;99024.16;5049354;28;20469;-72
2021/10/23 08:51:22;;;;;;;6.13;4.80;;;9.70;70.40;;;9.01;72.67;99031.25;5034317;28;20482;-72
2021/10/23 08:53:50;;;;;;;5.40;2.10;;;10.10;69.20;;;8.86;67.04;99033.88;5033119;28;20446;-71
2021/10/23 08:56:17;;;;;;;3.07;2.50;;;10.10;63.40;;;8.60;67.24;99050.41;5033851;28;20489;-73
2021/10/23 08:58:44;;;;;;;4.30;2.50;;;9.90;63.70;;;8.38;68.53;99038.53;5032403;28;20533;-73
2021/10/23 09:01:15;;;;;;;4.23;3.13;;;9.80;64.10;;;8.58;70.04;99039.78;5032633;28;20489;-72
2021/10/23 09:03:44;;;;;;;5.20;3.07;;;9.80;65.60;;;8.90;70.08;99048.69;5032971;28;20439;-72
2021/10/23 09:06:15;;;;;;;6.90;3.27;;;10.00;64.80;;;9.03;67.42;99049.94;5033794;28;20976;-73
2021/10/23 09:09:02;;;;;;;5.43;2.73;;;10.20;63.40;;;9.36;68.01;99060.44;5034257;28;20442;-73
2021/10/23 09:11:33;;;;;;;5.20;2.80;;;10.40;64.40;;;9.27;66.86;99064.25;5033899;28;20570;-73
2021/10/23 09:14:26;;;;;;;5.00;3.30;;;10.50;62.60;;;9.20;66.97;99062.28;5034843;28;20443;-73
2021/10/23 09:17:01;;;;;;;4.93;3.10;;;10.40;62.00;;;9.21;66.40;99046.94;5037848;28;20954;-82
2021/10/23 09:19:39;;;;;;;6.90;3.60;;;10.40;61.40;;;9.02;67.28;99065.28;5033575;28;20538;-73
2021/10/23 09:22:29;;;;;;;4.27;3.63;;;10.40;61.40;;;8.91;68.43;99063.00;5053258;28;20436;-74
2021/10/23 09:25:18;;;;;;;9.20;3.60;;;10.30;62.00;;;9.39;66.68;99060.09;5056087;28;20499;-75
2021/10/23 09:28:01;;;;;;;3.67;2.80;;;10.50;61.80;;;9.56;66.00;99060.78;5054186;28;20465;-76
2021/10/23 09:30:32;;;;;;;9.23;3.43;;;10.60;61.50;;;9.41;64.26;99062.59;5054640;28;20435;-72
2021/10/23 09:33:05;;;;;;;5.80;4.10;;;10.60;59.80;;;9.01;66.24;99036.63;5054905;28;20520;-73
2021/10/23 09:35:33;;;;;;;8.77;3.70;;;10.40;60.10;;;8.92;67.13;99040.41;5054458;28;20460;-72
2021/10/23 09:38:03;;;;;;;5.77;3.50;;;10.20;60.80;;;8.92;67.76;99045.81;5053317;28;20448;-73
2021/10/23 09:40:31;;;;;;;11.00;3.83;;;10.10;61.60;;;8.58;66.44;99049.75;5052609;28;20442;-71
2021/10/23 09:43:12;;;;;;;9.43;4.80;;;9.90;61.30;;;8.25;67.71;99047.16;5053313;28;20464;-72
2021/10/23 09:46:02;;;;;;;5.00;3.00;;;9.70;62.10;;;8.23;68.32;99061.63;5054020;28;20460;-69
2021/10/23 09:48:31;;;;;;;4.13;3.40;;;9.50;61.70;;;8.33;68.09;99055.22;5053352;28;20465;-72
2021/10/23 09:51:17;;;;;;;4.83;2.53;;;9.60;62.40;;;8.37;68.02;99056.53;5051835;28;20524;-70
2021/10/23 09:53:47;;;;;;;8.80;3.30;;;9.60;62.20;;;8.53;67.74;99060.19;5052920;28;20561;-75
2021/10/23 09:56:17;;;;;;;8.07;3.00;;;9.70;62.10;;;8.61;66.04;99069.06;5054058;28;20499;-71
2021/10/23 09:58:55;;;;;;;7.97;3.30;;;9.80;61.30;;;8.72;65.79;99070.53;5053113;28;20465;-70
2021/10/23 10:01:25;;;;;;;7.77;3.03;;;9.90;60.70;;;8.77;65.80;99062.75;5051528;28;20480;-71
2021/10/23 10:03:54;;;;;;;3.83;2.53;;;9.90;61.10;;;8.60;62.88;99074.66;5052172;28;20445;-74
2021/10/23 10:06:23;;;;;;;8.90;2.40;;;9.90;58.30;;;8.68;63.74;99068.38;5051659;28;20489;-73
2021/10/23 10:08:52;;;;;;;3.40;2.03;;;9.90;58.70;;;8.93;61.34;99072.56;5052469;28;21010;-71
2021/10/23 10:11:20;;;;;;;4.70;2.30;;;10.10;57.00;;;9.16;61.56;99065.50;5056830;28;20442;-69
2021/10/23 10:13:49;;;;;;;6.20;2.50;;;10.20;57.00;;;9.47;60.32;99064.56;5054948;28;20689;-71
2021/10/23 10:16:16;;;;;;;5.10;2.50;;;10.50;56.10;;;9.88;59.99;99057.94;5055730;28;20499;-72
2021/10/23 10:18:46;;;;;;;5.90;2.70;;;10.90;56.30;;;10.06;59.72;99071.06;5055789;28;20446;-71
2021/10/23 10:21:19;;;;;;;5.47;2.00;;;11.10;56.20;;;10.15;59.53;99064.53;5055304;28;20738;-67
2021/10/23 10:23:47;;;;;;;3.20;2.30;;;11.30;56.10;;;9.99;58.92;99070.97;5054874;28;20808;-70
2021/10/23 10:26:32;;;;;;;6.20;2.70;;;11.20;54.90;;;10.24;59.01;99076.09;5055437;28;20441;-71
2021/10/23 13:08:46;;;;;;;3.50;1.70;;;10.90;49.00;;;9.80;53.25;99076.91;5077917;27;20675;-75
2021/10/23 13:11:13;;;;;;;4.80;2.30;;;11.00;49.70;;;9.83;53.30;99079.22;5059539;28;20452;-70
2021/10/23 13:13:41;;;;;;;5.03;2.30;;;11.10;49.70;;;9.80;53.77;99085.88;5061759;28;20459;-73
2021/10/23 13:16:09;;;;;;;2.83;2.40;;;11.00;50.00;;;9.91;54.43;99074.59;5075396;28;20483;-79